sensor_id;sensor_type;location;lat;lon;timestamp;temperature;humidity
6536;DHT22;34330;52.08032700;5.40923460;2023-01-10T00:01:55;9.40;91.60
6536;DHT22;34330;52.08032700;5.40923460;2023-01-10T00:04:24;9.40;91.50
6536;DHT22;34330;52.08032700;5.40923460;2023-01-10T00:06:54;9.40;91.60
6536;DHT22;34330;52.08032700;5.40923460;2023-01-10T00:09:23;9.40;91.50
6536;DHT22;34330;52.08032700;5.40923460;2023-01-10T00:11:51;9.30;91.40
6536;DHT22;34330;52.08032700;5.40923460;2023-01-10T00:14:36;9.40;91.60
6536;DHT22;34330;52.08032700;5.40923460;2023-01-10T00:17:04;9.40;91.50
6536;DHT22;34330;52.08032700;5.40923460;2023-01-10T00:19:32;9.50;91.60
6536;DHT22;34330;52.08032700;5.40923460;2023-01-10T00:22:00;9.20;91.50
6536;DHT22;34330;52.08032700;5.40923460;2023-01-10T00:24:39;9.20;91.60
6536;DHT22;34330;52.08032700;5.40923460;2023-01-10T00:27:08;9.20;91.70
6536;DHT22;34330;52.08032700;5.40923460;2023-01-10T00:29:38;9.20;91.70
6536;DHT22;34330;52.08032700;5.40923460;2023-01-10T00:32:07;9.20;91.80
6536;DHT22;34330;52.08032700;5.40923460;2023-01-10T00:34:35;9.20;91.80
6536;DHT22;34330;52.08032700;5.40923460;2023-01-10T00:37:02;9.20;91.80
6536;DHT22;34330;52.08032700;5.40923460;2023-01-10T00:39:30;9.20;91.90
6536;DHT22;34330;52.08032700;5.40923460;2023-01-10T00:42:00;9.20;91.90
6536;DHT22;34330;52.08032700;5.40923460;2023-01-10T00:44:45;9.20;91.80
6536;DHT22;34330;52.08032700;5.40923460;2023-01-10T00:47:13;9.30;91.90
6536;DHT22;34330;52.08032700;5.40923460;2023-01-10T00:49:41;9.30;91.80
6536;DHT22;34330;52.08032700;5.40923460;2023-01-10T00:52:09;9.30;91.80
6536;DHT22;34330;52.08032700;5.40923460;2023-01-10T00:54:37;9.30;91.80
6536;DHT22;34330;52.08032700;5.40923460;2023-01-10T00:57:06;9.30;91.70
6536;DHT22;34330;52.08032700;5.40923460;2023-01-10T00:59:34;9.70;91.90
6536;DHT22;34330;52.08032700;5.40923460;2023-01-10T01:02:02;9.30;91.70
6536;DHT22;34330;52.08032700;5.40923460;2023-01-10T01:04:30;9.40;91.70
6536;DHT22;34330;52.08032700;5.40923460;2023-01-10T01:07:00;9.60;91.80
6536;DHT22;34330;52.08032700;5.40923460;2023-01-10T01:09:28;9.30;91.60
6536;DHT22;34330;52.08032700;5.40923460;2023-01-10T01:11:57;9.30;91.70
6536;DHT22;34330;52.08032700;5.40923460;2023-01-10T01:14:26;9.40;92.00
6536;DHT22;34330;52.08032700;5.40923460;2023-01-10T01:16:54;9.50;91.70
6536;DHT22;34330;52.08032700;5.40923460;2023-01-10T01:19:23;9.30;91.60
6536;DHT22;34330;52.08032700;5.40923460;2023-01-10T01:21:51;9.30;91.60
6536;DHT22;34330;52.08032700;5.40923460;2023-01-10T01:24:19;9.30;91.60
6536;DHT22;34330;52.08032700;5.40923460;2023-01-10T01:26:48;9.30;91.70
6536;DHT22;34330;52.08032700;5.40923460;2023-01-10T01:29:16;9.30;91.60
6536;DHT22;34330;52.08032700;5.40923460;2023-01-10T01:31:45;9.30;91.70
6536;DHT22;34330;52.08032700;5.40923460;2023-01-10T01:34:13;9.30;91.70
6536;DHT22;34330;52.08032700;5.40923460;2023-01-10T01:36:41;9.30;91.70
6536;DHT22;34330;52.08032700;5.40923460;2023-01-10T01:39:09;9.30;91.80
6536;DHT22;34330;52.08032700;5.40923460;2023-01-10T01:41:37;9.30;91.80
6536;DHT22;34330;52.08032700;5.40923460;2023-01-10T01:44:23;9.60;92.00
6536;DHT22;34330;52.08032700;5.40923460;2023-01-10T01:47:01;9.30;92.00
6536;DHT22;34330;52.08032700;5.40923460;2023-01-10T01:49:31;9.30;92.00
6536;DHT22;34330;52.08032700;5.40923460;2023-01-10T01:52:04;9.30;92.10
6536;DHT22;34330;52.08032700;5.40923460;2023-01-10T01:54:33;9.30;92.20
6536;DHT22;34330;52.08032700;5.40923460;2023-01-10T01:57:04;9.40;92.30
6536;DHT22;34330;52.08032700;5.40923460;2023-01-10T01:59:36;9.30;92.40
6536;DHT22;34330;52.08032700;5.40923460;2023-01-10T02:02:08;9.30;92.50
6536;DHT22;34330;52.08032700;5.40923460;2023-01-10T02:04:41;9.30;92.60
6536;DHT22;34330;52.08032700;5.40923460;2023-01-10T02:07:12;9.30;92.60
6536;DHT22;34330;52.08032700;5.40923460;2023-01-10T02:09:45;9.30;92.50
6536;DHT22;34330;52.08032700;5.40923460;2023-01-10T02:12:16;9.30;93.00
6536;DHT22;34330;52.08032700;5.40923460;2023-01-10T02:14:49;9.30;92.80
6536;DHT22;34330;52.08032700;5.40923460;2023-01-10T02:17:20;9.30;92.80
6536;DHT22;34330;52.08032700;5.40923460;2023-01-10T02:19:52;9.30;92.80
6536;DHT22;34330;52.08032700;5.40923460;2023-01-10T02:22:49;9.30;93.00
6536;DHT22;34330;52.08032700;5.40923460;2023-01-10T02:34:19;9.40;93.40
6536;DHT22;34330;52.08032700;5.40923460;2023-01-10T02:36:55;9.40;93.40
6536;DHT22;34330;52.08032700;5.40923460;2023-01-10T02:39:32;9.40;93.50
6536;DHT22;34330;52.08032700;5.40923460;2023-01-10T02:42:05;9.40;93.50
6536;DHT22;34330;52.08032700;5.40923460;2023-01-10T02:44:39;9.50;93.60
6536;DHT22;34330;52.08032700;5.40923460;2023-01-10T02:47:11;9.50;93.60
6536;DHT22;34330;52.08032700;5.40923460;2023-01-10T02:49:42;9.50;93.70
6536;DHT22;34330;52.08032700;5.40923460;2023-01-10T02:52:11;9.60;93.70
6536;DHT22;34330;52.08032700;5.40923460;2023-01-10T02:54:40;9.50;93.70
6536;DHT22;34330;52.08032700;5.40923460;2023-01-10T02:57:22;9.60;93.70
6536;DHT22;34330;52.08032700;5.40923460;2023-01-10T03:00:18;9.60;93.80
6536;DHT22;34330;52.08032700;5.40923460;2023-01-10T03:03:01;9.60;93.80
6536;DHT22;34330;52.08032700;5.40923460;2023-01-10T03:05:50;9.60;93.80
6536;DHT22;34330;52.08032700;5.40923460;2023-01-10T03:08:26;9.70;93.80
6536;DHT22;34330;52.08032700;5.40923460;2023-01-10T03:10:58;9.70;93.80
6536;DHT22;34330;52.08032700;5.40923460;2023-01-10T03:13:31;9.70;93.70
6536;DHT22;34330;52.08032700;5.40923460;2023-01-10T03:16:02;9.70;93.60
6536;DHT22;34330;52.08032700;5.40923460;2023-01-10T03:18:33;9.70;93.70
6536;DHT22;34330;52.08032700;5.40923460;2023-01-10T03:21:05;9.70;93.60
6536;DHT22;34330;52.08032700;5.40923460;2023-01-10T03:23:35;9.90;93.70
6536;DHT22;34330;52.08032700;5.40923460;2023-01-10T03:26:04;9.80;93.60
6536;DHT22;34330;52.08032700;5.40923460;2023-01-10T03:28:38;9.80;93.60
6536;DHT22;34330;52.08032700;5.40923460;2023-01-10T03:31:10;9.80;93.60
6536;DHT22;34330;52.08032700;5.40923460;2023-01-10T03:33:40;9.80;93.50
6536;DHT22;34330;52.08032700;5.40923460;2023-01-10T03:36:16;9.80;93.50
6536;DHT22;34330;52.08032700;5.40923460;2023-01-10T03:38:51;9.80;93.50
6536;DHT22;34330;52.08032700;5.40923460;2023-01-10T03:41:28;9.80;93.40
6536;DHT22;34330;52.08032700;5.40923460;2023-01-10T03:44:06;9.80;93.40
6536;DHT22;34330;52.08032700;5.40923460;2023-01-10T03:46:58;9.80;93.30
6536;DHT22;34330;52.08032700;5.40923460;2023-01-10T03:49:28;9.80;93.30
6536;DHT22;34330;52.08032700;5.40923460;2023-01-10T03:51:58;10.00;92.90
6536;DHT22;34330;52.08032700;5.40923460;2023-01-10T03:54:27;9.70;93.30
6536;DHT22;34330;52.08032700;5.40923460;2023-01-10T03:56:55;9.70;93.20
6536;DHT22;34330;52.08032700;5.40923460;2023-01-10T03:59:25;9.70;93.20
6536;DHT22;34330;52.08032700;5.40923460;2023-01-10T04:01:54;9.80;93.30
6536;DHT22;34330;52.08032700;5.40923460;2023-01-10T04:04:22;9.70;93.20
6536;DHT22;34330;52.08032700;5.40923460;2023-01-10T04:06:50;9.70;93.20
6536;DHT22;34330;52.08032700;5.40923460;2023-01-10T04:09:20;9.70;93.20
6536;DHT22;34330;52.08032700;5.40923460;2023-01-10T04:11:48;9.70;93.20
6536;DHT22;34330;52.08032700;5.40923460;2023-01-10T04:14:16;9.80;93.30
6536;DHT22;34330;52.08032700;5.40923460;2023-01-10T04:16:44;9.60;93.20
6536;DHT22;34330;52.08032700;5.40923460;2023-01-10T04:19:12;9.60;93.30
6536;DHT22;34330;52.08032700;5.40923460;2023-01-10T04:21:40;9.70;93.30
6536;DHT22;34330;52.08032700;5.40923460;2023-01-10T04:24:08;9.60;93.30
6536;DHT22;34330;52.08032700;5.40923460;2023-01-10T04:26:37;9.70;93.40
6536;DHT22;34330;52.08032700;5.40923460;2023-01-10T04:29:05;9.90;93.50
6536;DHT22;34330;52.08032700;5.40923460;2023-01-10T04:31:33;9.60;93.40
6536;DHT22;34330;52.08032700;5.40923460;2023-01-10T04:34:01;9.60;93.70
6536;DHT22;34330;52.08032700;5.40923460;2023-01-10T04:36:29;9.70;93.40
6536;DHT22;34330;52.08032700;5.40923460;2023-01-10T04:38:57;9.70;93.40
6536;DHT22;34330;52.08032700;5.40923460;2023-01-10T04:41:24;9.60;93.30
6536;DHT22;34330;52.08032700;5.40923460;2023-01-10T04:43:54;9.60;93.20
6536;DHT22;34330;52.08032700;5.40923460;2023-01-10T04:46:22;9.70;93.20
6536;DHT22;34330;52.08032700;5.40923460;2023-01-10T04:48:50;9.60;93.10
6536;DHT22;34330;52.08032700;5.40923460;2023-01-10T04:51:18;9.70;93.20
6536;DHT22;34330;52.08032700;5.40923460;2023-01-10T04:53:47;9.60;93.10
6536;DHT22;34330;52.08032700;5.40923460;2023-01-10T04:56:17;9.60;93.20
6536;DHT22;34330;52.08032700;5.40923460;2023-01-10T04:58:47;9.20;93.00
6536;DHT22;34330;52.08032700;5.40923460;2023-01-10T05:01:23;9.50;93.10
6536;DHT22;34330;52.08032700;5.40923460;2023-01-10T05:03:53;9.50;93.20
6536;DHT22;34330;52.08032700;5.40923460;2023-01-10T05:06:22;9.50;93.20
6536;DHT22;34330;52.08032700;5.40923460;2023-01-10T05:08:51;9.40;93.10
6536;DHT22;34330;52.08032700;5.40923460;2023-01-10T05:11:19;9.50;93.10
6536;DHT22;34330;52.08032700;5.40923460;2023-01-10T05:13:47;9.40;93.10
6536;DHT22;34330;52.08032700;5.40923460;2023-01-10T05:16:15;9.40;93.00
6536;DHT22;34330;52.08032700;5.40923460;2023-01-10T05:18:45;9.40;92.90
6536;DHT22;34330;52.08032700;5.40923460;2023-01-10T05:21:13;9.40;93.00
6536;DHT22;34330;52.08032700;5.40923460;2023-01-10T05:23:42;9.40;92.90
6536;DHT22;34330;52.08032700;5.40923460;2023-01-10T05:26:11;9.30;93.00
6536;DHT22;34330;52.08032700;5.40923460;2023-01-10T05:28:40;9.30;93.10
6536;DHT22;34330;52.08032700;5.40923460;2023-01-10T05:31:09;9.30;93.10
6536;DHT22;34330;52.08032700;5.40923460;2023-01-10T05:33:37;9.20;93.10
6536;DHT22;34330;52.08032700;5.40923460;2023-01-10T05:36:07;9.20;93.10
6536;DHT22;34330;52.08032700;5.40923460;2023-01-10T05:38:35;10.70;93.30
6536;DHT22;34330;52.08032700;5.40923460;2023-01-10T05:41:03;9.30;93.30
6536;DHT22;34330;52.08032700;5.40923460;2023-01-10T05:43:31;9.20;93.40
6536;DHT22;34330;52.08032700;5.40923460;2023-01-10T05:45:59;9.20;93.50
6536;DHT22;34330;52.08032700;5.40923460;2023-01-10T05:48:27;9.30;93.60
6536;DHT22;34330;52.08032700;5.40923460;2023-01-10T05:50:55;9.30;93.70
6536;DHT22;34330;52.08032700;5.40923460;2023-01-10T05:53:25;9.30;93.70
6536;DHT22;34330;52.08032700;5.40923460;2023-01-10T05:55:54;9.30;93.80
6536;DHT22;34330;52.08032700;5.40923460;2023-01-10T05:58:23;9.30;93.90
6536;DHT22;34330;52.08032700;5.40923460;2023-01-10T06:00:53;9.30;93.90
6536;DHT22;34330;52.08032700;5.40923460;2023-01-10T06:03:22;9.40;94.00
6536;DHT22;34330;52.08032700;5.40923460;2023-01-10T06:05:50;9.40;93.90
6536;DHT22;34330;52.08032700;5.40923460;2023-01-10T06:08:18;9.40;93.90
6536;DHT22;34330;52.08032700;5.40923460;2023-01-10T06:10:53;9.40;93.90
6536;DHT22;34330;52.08032700;5.40923460;2023-01-10T06:13:22;9.40;93.80
6536;DHT22;34330;52.08032700;5.40923460;2023-01-10T06:15:50;9.50;93.80
6536;DHT22;34330;52.08032700;5.40923460;2023-01-10T06:18:18;9.70;93.90
6536;DHT22;34330;52.08032700;5.40923460;2023-01-10T06:20:47;9.50;93.70
6536;DHT22;34330;52.08032700;5.40923460;2023-01-10T06:23:15;9.50;93.70
6536;DHT22;34330;52.08032700;5.40923460;2023-01-10T06:25:43;9.50;93.70
6536;DHT22;34330;52.08032700;5.40923460;2023-01-10T06:28:13;9.80;93.80
6536;DHT22;34330;52.08032700;5.40923460;2023-01-10T06:30:41;9.60;93.70
6536;DHT22;34330;52.08032700;5.40923460;2023-01-10T06:33:10;9.60;93.70
6536;DHT22;34330;52.08032700;5.40923460;2023-01-10T06:35:38;9.60;93.70
6536;DHT22;34330;52.08032700;5.40923460;2023-01-10T06:38:06;9.60;93.60
6536;DHT22;34330;52.08032700;5.40923460;2023-01-10T06:40:34;9.60;93.60
6536;DHT22;34330;52.08032700;5.40923460;2023-01-10T06:43:02;9.60;93.60
6536;DHT22;34330;52.08032700;5.40923460;2023-01-10T06:45:31;9.60;93.60
6536;DHT22;34330;52.08032700;5.40923460;2023-01-10T06:47:59;9.60;93.60
6536;DHT22;34330;52.08032700;5.40923460;2023-01-10T06:50:27;9.60;93.50
6536;DHT22;34330;52.08032700;5.40923460;2023-01-10T06:52:56;9.60;93.50
6536;DHT22;34330;52.08032700;5.40923460;2023-01-10T06:55:24;9.60;93.50
6536;DHT22;34330;52.08032700;5.40923460;2023-01-10T06:57:55;9.70;93.50
6536;DHT22;34330;52.08032700;5.40923460;2023-01-10T07:00:24;9.70;93.50
6536;DHT22;34330;52.08032700;5.40923460;2023-01-10T07:02:54;9.70;93.50
6536;DHT22;34330;52.08032700;5.40923460;2023-01-10T07:05:24;9.70;93.50
6536;DHT22;34330;52.08032700;5.40923460;2023-01-10T07:07:52;9.70;93.40
6536;DHT22;34330;52.08032700;5.40923460;2023-01-10T07:10:20;9.60;93.40
6536;DHT22;34330;52.08032700;5.40923460;2023-01-10T07:12:48;9.70;93.30
6536;DHT22;34330;52.08032700;5.40923460;2023-01-10T07:15:19;9.70;93.20
6536;DHT22;34330;52.08032700;5.40923460;2023-01-10T07:17:49;9.90;93.30
6536;DHT22;34330;52.08032700;5.40923460;2023-01-10T07:20:19;9.70;93.20
6536;DHT22;34330;52.08032700;5.40923460;2023-01-10T07:22:52;9.60;93.10
6536;DHT22;34330;52.08032700;5.40923460;2023-01-10T07:25:21;9.60;93.10
6536;DHT22;34330;52.08032700;5.40923460;2023-01-10T07:27:49;9.60;92.90
6536;DHT22;34330;52.08032700;5.40923460;2023-01-10T07:30:17;9.60;92.80
6536;DHT22;34330;52.08032700;5.40923460;2023-01-10T07:32:51;9.60;93.00
6536;DHT22;34330;52.08032700;5.40923460;2023-01-10T07:35:22;9.60;93.10
6536;DHT22;34330;52.08032700;5.40923460;2023-01-10T07:37:50;9.50;93.00
6536;DHT22;34330;52.08032700;5.40923460;2023-01-10T07:40:26;10.00;92.70
6536;DHT22;34330;52.08032700;5.40923460;2023-01-10T07:42:55;9.50;93.00
6536;DHT22;34330;52.08032700;5.40923460;2023-01-10T07:45:24;9.50;93.10
6536;DHT22;34330;52.08032700;5.40923460;2023-01-10T07:47:55;9.50;93.00
6536;DHT22;34330;52.08032700;5.40923460;2023-01-10T07:50:25;9.50;93.10
6536;DHT22;34330;52.08032700;5.40923460;2023-01-10T07:52:53;9.70;93.20
6536;DHT22;34330;52.08032700;5.40923460;2023-01-10T07:55:21;9.40;92.80
6536;DHT22;34330;52.08032700;5.40923460;2023-01-10T07:57:52;8.50;92.50
6536;DHT22;34330;52.08032700;5.40923460;2023-01-10T08:00:21;9.40;93.00
6536;DHT22;34330;52.08032700;5.40923460;2023-01-10T08:02:52;9.40;92.90
6536;DHT22;34330;52.08032700;5.40923460;2023-01-10T08:05:21;9.40;93.00
6536;DHT22;34330;52.08032700;5.40923460;2023-01-10T08:07:53;9.40;92.60
6536;DHT22;34330;52.08032700;5.40923460;2023-01-10T08:10:25;9.40;92.90
6536;DHT22;34330;52.08032700;5.40923460;2023-01-10T08:12:53;9.40;92.90
6536;DHT22;34330;52.08032700;5.40923460;2023-01-10T08:15:23;9.40;92.90
6536;DHT22;34330;52.08032700;5.40923460;2023-01-10T08:17:51;9.40;92.80
6536;DHT22;34330;52.08032700;5.40923460;2023-01-10T08:20:19;9.40;92.80
6536;DHT22;34330;52.08032700;5.40923460;2023-01-10T08:22:48;9.40;92.70
6536;DHT22;34330;52.08032700;5.40923460;2023-01-10T08:25:18;9.40;92.70
6536;DHT22;34330;52.08032700;5.40923460;2023-01-10T08:27:49;9.40;92.60
6536;DHT22;34330;52.08032700;5.40923460;2023-01-10T08:30:18;9.00;92.40
6536;DHT22;34330;52.08032700;5.40923460;2023-01-10T08:32:49;9.30;92.60
6536;DHT22;34330;52.08032700;5.40923460;2023-01-10T08:35:17;9.30;92.50
6536;DHT22;34330;52.08032700;5.40923460;2023-01-10T08:37:50;9.30;92.70
6536;DHT22;34330;52.08032700;5.40923460;2023-01-10T08:40:19;9.40;92.70
6536;DHT22;34330;52.08032700;5.40923460;2023-01-10T08:42:48;9.30;92.70
6536;DHT22;34330;52.08032700;5.40923460;2023-01-10T08:45:22;9.30;92.80
6536;DHT22;34330;52.08032700;5.40923460;2023-01-10T08:47:50;9.30;92.70
6536;DHT22;34330;52.08032700;5.40923460;2023-01-10T08:50:18;9.30;92.80
6536;DHT22;34330;52.08032700;5.40923460;2023-01-10T08:52:47;9.30;92.80
6536;DHT22;34330;52.08032700;5.40923460;2023-01-10T08:55:18;9.30;92.70
6536;DHT22;34330;52.08032700;5.40923460;2023-01-10T08:57:52;9.30;92.80
6536;DHT22;34330;52.08032700;5.40923460;2023-01-10T09:00:21;9.30;92.70
6536;DHT22;34330;52.08032700;5.40923460;2023-01-10T09:02:52;9.40;92.80
6536;DHT22;34330;52.08032700;5.40923460;2023-01-10T09:05:21;9.40;92.70
6536;DHT22;34330;52.08032700;5.40923460;2023-01-10T09:07:58;9.40;92.80
6536;DHT22;34330;52.08032700;5.40923460;2023-01-10T09:10:28;9.40;92.80
6536;DHT22;34330;52.08032700;5.40923460;2023-01-10T09:12:57;9.40;92.80
6536;DHT22;34330;52.08032700;5.40923460;2023-01-10T09:15:28;9.40;92.70
6536;DHT22;34330;52.08032700;5.40923460;2023-01-10T09:17:59;9.40;92.70
6536;DHT22;34330;52.08032700;5.40923460;2023-01-10T09:20:28;10.60;92.70
6536;DHT22;34330;52.08032700;5.40923460;2023-01-10T09:22:56;9.50;92.70
6536;DHT22;34330;52.08032700;5.40923460;2023-01-10T09:25:25;9.50;92.60
6536;DHT22;34330;52.08032700;5.40923460;2023-01-10T09:27:58;9.50;92.60
6536;DHT22;34330;52.08032700;5.40923460;2023-01-10T09:30:28;9.50;92.60
6536;DHT22;34330;52.08032700;5.40923460;2023-01-10T09:32:59;9.50;92.60
6536;DHT22;34330;52.08032700;5.40923460;2023-01-10T09:35:28;9.50;92.50
6536;DHT22;34330;52.08032700;5.40923460;2023-01-10T09:37:58;9.50;92.50
6536;DHT22;34330;52.08032700;5.40923460;2023-01-10T09:40:37;9.50;92.50
6536;DHT22;34330;52.08032700;5.40923460;2023-01-10T09:43:14;9.60;92.50
6536;DHT22;34330;52.08032700;5.40923460;2023-01-10T09:45:49;9.50;92.40
6536;DHT22;34330;52.08032700;5.40923460;2023-01-10T09:48:23;9.50;92.30
6536;DHT22;34330;52.08032700;5.40923460;2023-01-10T09:51:05;9.60;92.40
6536;DHT22;34330;52.08032700;5.40923460;2023-01-10T09:53:40;9.50;92.30
6536;DHT22;34330;52.08032700;5.40923460;2023-01-10T09:56:08;9.60;92.30
6536;DHT22;34330;52.08032700;5.40923460;2023-01-10T09:58:38;9.60;92.20
6536;DHT22;34330;52.08032700;5.40923460;2023-01-10T10:01:09;9.60;92.30
6536;DHT22;34330;52.08032700;5.40923460;2023-01-10T10:03:44;9.60;92.20
6536;DHT22;34330;52.08032700;5.40923460;2023-01-10T10:06:13;9.60;92.20
6536;DHT22;34330;52.08032700;5.40923460;2023-01-10T10:08:44;9.60;92.10
6536;DHT22;34330;52.08032700;5.40923460;2023-01-10T10:11:30;9.60;92.10
6536;DHT22;34330;52.08032700;5.40923460;2023-01-10T10:14:04;9.60;92.10
6536;DHT22;34330;52.08032700;5.40923460;2023-01-10T10:16:40;9.60;92.20
6536;DHT22;34330;52.08032700;5.40923460;2023-01-10T10:19:21;9.60;92.10
6536;DHT22;34330;52.08032700;5.40923460;2023-01-10T10:21:57;9.60;92.10
6536;DHT22;34330;52.08032700;5.40923460;2023-01-10T10:24:41;9.60;92.00
6536;DHT22;34330;52.08032700;5.40923460;2023-01-10T10:27:17;9.60;92.00
6536;DHT22;34330;52.08032700;5.40923460;2023-01-10T10:30:02;9.70;92.00
6536;DHT22;34330;52.08032700;5.40923460;2023-01-10T10:32:42;9.60;91.90
6536;DHT22;34330;52.08032700;5.40923460;2023-01-10T10:35:17;9.60;91.90
6536;DHT22;34330;52.08032700;5.40923460;2023-01-10T10:37:50;9.60;91.90
6536;DHT22;34330;52.08032700;5.40923460;2023-01-10T10:40:20;9.60;92.00
6536;DHT22;34330;52.08032700;5.40923460;2023-01-10T10:42:51;9.60;91.70
6536;DHT22;34330;52.08032700;5.40923460;2023-01-10T10:45:23;9.60;91.90
6536;DHT22;34330;52.08032700;5.40923460;2023-01-10T10:48:00;9.60;91.90
6536;DHT22;34330;52.08032700;5.40923460;2023-01-10T10:50:32;9.60;91.90
6536;DHT22;34330;52.08032700;5.40923460;2023-01-10T10:53:02;9.60;91.90
6536;DHT22;34330;52.08032700;5.40923460;2023-01-10T10:55:32;9.60;91.80
6536;DHT22;34330;52.08032700;5.40923460;2023-01-10T10:58:01;9.70;91.80
6536;DHT22;34330;52.08032700;5.40923460;2023-01-10T11:00:32;9.80;91.90
6536;DHT22;34330;52.08032700;5.40923460;2023-01-10T11:03:09;9.60;91.80
6536;DHT22;34330;52.08032700;5.40923460;2023-01-10T11:05:42;9.60;91.60
6536;DHT22;34330;52.08032700;5.40923460;2023-01-10T11:08:13;9.60;91.60
6536;DHT22;34330;52.08032700;5.40923460;2023-01-10T11:10:46;9.80;91.70
6536;DHT22;34330;52.08032700;5.40923460;2023-01-10T11:13:27;7.70;90.70
6536;DHT22;34330;52.08032700;5.40923460;2023-01-10T11:15:58;9.70;91.60
6536;DHT22;34330;52.08032700;5.40923460;2023-01-10T11:18:27;9.70;91.70
6536;DHT22;34330;52.08032700;5.40923460;2023-01-10T11:20:57;9.70;91.70
6536;DHT22;34330;52.08032700;5.40923460;2023-01-10T11:23:36;9.70;91.80
6536;DHT22;34330;52.08032700;5.40923460;2023-01-10T11:26:10;9.70;91.90
6536;DHT22;34330;52.08032700;5.40923460;2023-01-10T11:28:50;9.70;91.60
6536;DHT22;34330;52.08032700;5.40923460;2023-01-10T11:31:27;9.70;91.60
6536;DHT22;34330;52.08032700;5.40923460;2023-01-10T11:33:56;9.70;91.60
6536;DHT22;34330;52.08032700;5.40923460;2023-01-10T11:36:24;9.70;91.80
6536;DHT22;34330;52.08032700;5.40923460;2023-01-10T11:38:59;9.70;91.60
6536;DHT22;34330;52.08032700;5.40923460;2023-01-10T11:41:28;9.70;91.60
6536;DHT22;34330;52.08032700;5.40923460;2023-01-10T11:44:15;9.80;91.60
6536;DHT22;34330;52.08032700;5.40923460;2023-01-10T11:46:46;9.80;91.60
6536;DHT22;34330;52.08032700;5.40923460;2023-01-10T11:49:26;10.00;91.10
6536;DHT22;34330;52.08032700;5.40923460;2023-01-10T11:51:58;9.80;91.60
6536;DHT22;34330;52.08032700;5.40923460;2023-01-10T11:54:28;9.90;91.60
6536;DHT22;34330;52.08032700;5.40923460;2023-01-10T11:56:58;9.90;91.60
6536;DHT22;34330;52.08032700;5.40923460;2023-01-10T11:59:28;10.00;91.10
6536;DHT22;34330;52.08032700;5.40923460;2023-01-10T12:02:00;9.90;91.70
6536;DHT22;34330;52.08032700;5.40923460;2023-01-10T12:04:31;9.90;91.70
6536;DHT22;34330;52.08032700;5.40923460;2023-01-10T12:07:05;10.00;91.10
6536;DHT22;34330;52.08032700;5.40923460;2023-01-10T12:09:38;10.00;91.10
6536;DHT22;34330;52.08032700;5.40923460;2023-01-10T12:12:20;10.00;91.10
6536;DHT22;34330;52.08032700;5.40923460;2023-01-10T12:14:49;10.00;91.10
6536;DHT22;34330;52.08032700;5.40923460;2023-01-10T12:17:24;10.00;91.10
6536;DHT22;34330;52.08032700;5.40923460;2023-01-10T12:19:54;10.00;91.10
6536;DHT22;34330;52.08032700;5.40923460;2023-01-10T12:22:30;10.00;91.10
6536;DHT22;34330;52.08032700;5.40923460;2023-01-10T12:25:00;10.00;91.10
6536;DHT22;34330;52.08032700;5.40923460;2023-01-10T12:27:31;10.00;91.10
6536;DHT22;34330;52.08032700;5.40923460;2023-01-10T12:30:04;10.10;91.10
6536;DHT22;34330;52.08032700;5.40923460;2023-01-10T12:32:38;10.10;91.10
6536;DHT22;34330;52.08032700;5.40923460;2023-01-10T12:35:14;10.20;91.20
6536;DHT22;34330;52.08032700;5.40923460;2023-01-10T12:37:47;10.10;91.10
6536;DHT22;34330;52.08032700;5.40923460;2023-01-10T12:40:23;10.10;91.10
6536;DHT22;34330;52.08032700;5.40923460;2023-01-10T12:42:55;10.10;91.10
6536;DHT22;34330;52.08032700;5.40923460;2023-01-10T12:45:45;10.10;91.10
6536;DHT22;34330;52.08032700;5.40923460;2023-01-10T12:48:22;10.10;91.00
6536;DHT22;34330;52.08032700;5.40923460;2023-01-10T12:50:54;10.20;91.00
6536;DHT22;34330;52.08032700;5.40923460;2023-01-10T12:53:29;10.20;91.10
6536;DHT22;34330;52.08032700;5.40923460;2023-01-10T12:56:01;10.20;91.00
6536;DHT22;34330;52.08032700;5.40923460;2023-01-10T12:58:37;10.00;90.80
6536;DHT22;34330;52.08032700;5.40923460;2023-01-10T13:01:11;10.20;90.90
6536;DHT22;34330;52.08032700;5.40923460;2023-01-10T13:03:43;10.50;91.00
6536;DHT22;34330;52.08032700;5.40923460;2023-01-10T13:06:20;10.20;90.80
6536;DHT22;34330;52.08032700;5.40923460;2023-01-10T13:08:50;10.40;91.00
6536;DHT22;34330;52.08032700;5.40923460;2023-01-10T13:11:22;10.20;90.80
6536;DHT22;34330;52.08032700;5.40923460;2023-01-10T13:13:55;10.30;90.90
6536;DHT22;34330;52.08032700;5.40923460;2023-01-10T13:16:32;10.30;91.10
6536;DHT22;34330;52.08032700;5.40923460;2023-01-10T13:19:22;11.20;91.20
6536;DHT22;34330;52.08032700;5.40923460;2023-01-10T13:22:11;10.30;90.80
6536;DHT22;34330;52.08032700;5.40923460;2023-01-10T13:24:54;10.30;90.80
6536;DHT22;34330;52.08032700;5.40923460;2023-01-10T13:27:23;10.40;90.80
6536;DHT22;34330;52.08032700;5.40923460;2023-01-10T13:29:51;10.30;90.70
6536;DHT22;34330;52.08032700;5.40923460;2023-01-10T13:32:22;10.40;90.70
6536;DHT22;34330;52.08032700;5.40923460;2023-01-10T13:34:53;10.40;90.80
6536;DHT22;34330;52.08032700;5.40923460;2023-01-10T13:37:23;10.40;90.80
6536;DHT22;34330;52.08032700;5.40923460;2023-01-10T13:39:53;10.40;90.80
6536;DHT22;34330;52.08032700;5.40923460;2023-01-10T13:42:26;10.40;90.70
6536;DHT22;34330;52.08032700;5.40923460;2023-01-10T13:45:29;10.40;90.70
6536;DHT22;34330;52.08032700;5.40923460;2023-01-10T13:51:05;10.50;90.70
6536;DHT22;34330;52.08032700;5.40923460;2023-01-10T13:53:43;10.50;90.60
6536;DHT22;34330;52.08032700;5.40923460;2023-01-10T13:56:36;10.50;90.60
6536;DHT22;34330;52.08032700;5.40923460;2023-01-10T13:59:10;10.50;90.60
6536;DHT22;34330;52.08032700;5.40923460;2023-01-10T14:01:58;10.50;90.60
6536;DHT22;34330;52.08032700;5.40923460;2023-01-10T14:04:49;10.60;90.70
6536;DHT22;34330;52.08032700;5.40923460;2023-01-10T14:07:26;10.60;90.60
6536;DHT22;34330;52.08032700;5.40923460;2023-01-10T14:09:59;10.60;90.60
6536;DHT22;34330;52.08032700;5.40923460;2023-01-10T14:12:32;10.70;90.60
6536;DHT22;34330;52.08032700;5.40923460;2023-01-10T14:15:18;10.60;90.60
6536;DHT22;34330;52.08032700;5.40923460;2023-01-10T14:17:55;10.60;90.60
6536;DHT22;34330;52.08032700;5.40923460;2023-01-10T14:20:24;10.60;90.60
6536;DHT22;34330;52.08032700;5.40923460;2023-01-10T14:23:04;10.60;90.70